createdAt,value
2018-08-03T00:01:55.584Z,2.10
2018-08-03T00:04:23.773Z,2.70
2018-08-03T00:06:51.720Z,2.87
2018-08-03T00:09:19.895Z,2.00
2018-08-03T00:11:48.080Z,2.03
2018-08-03T00:14:16.053Z,2.50
2018-08-03T00:16:44.038Z,2.70
2018-08-03T00:19:12.207Z,2.63
2018-08-03T00:21:40.424Z,3.20
2018-08-03T00:24:08.592Z,2.60
2018-08-03T00:26:37.320Z,2.57
2018-08-03T00:29:05.688Z,3.00
2018-08-03T00:31:33.869Z,3.43
2018-08-03T00:34:01.887Z,2.30
2018-08-03T00:36:30.087Z,3.60
2018-08-03T00:38:58.258Z,2.80
2018-08-03T00:41:26.432Z,2.50
2018-08-03T00:43:54.604Z,2.90
2018-08-03T00:46:22.804Z,3.20
2018-08-03T00:48:50.979Z,3.50
2018-08-03T00:51:19.163Z,3.73
2018-08-03T00:53:47.108Z,3.30
2018-08-03T00:56:15.300Z,2.73
2018-08-03T00:58:43.480Z,3.13
2018-08-03T01:01:11.639Z,3.17
2018-08-03T01:03:39.866Z,3.50
2018-08-03T01:06:08.041Z,3.10
2018-08-03T01:08:36.213Z,3.00
2018-08-03T01:11:04.383Z,3.40
2018-08-03T01:13:32.564Z,3.37
2018-08-03T01:16:00.765Z,3.33
2018-08-03T01:18:28.962Z,3.20
2018-08-03T01:20:57.160Z,3.40
2018-08-03T01:23:25.336Z,3.00
2018-08-03T01:25:53.516Z,3.90
2018-08-03T01:28:21.708Z,3.43
2018-08-03T01:30:49.900Z,3.97
2018-08-03T01:33:18.150Z,3.30
2018-08-03T01:35:46.343Z,3.70
2018-08-03T01:38:14.700Z,3.07
2018-08-03T01:40:42.867Z,3.53
2018-08-03T01:43:11.024Z,4.23
2018-08-03T01:45:39.560Z,3.60
2018-08-03T01:48:07.748Z,3.67
2018-08-03T01:50:35.920Z,3.80
2018-08-03T01:53:04.132Z,4.00
2018-08-03T01:55:32.938Z,3.47
2018-08-03T01:58:01.115Z,3.90
2018-08-03T02:00:29.283Z,3.67
2018-08-03T02:02:57.495Z,4.00
2018-08-03T02:05:25.683Z,4.17
2018-08-03T02:07:53.702Z,4.90
2018-08-03T02:10:21.972Z,4.13
2018-08-03T02:12:50.151Z,4.47
2018-08-03T02:15:18.336Z,4.20
2018-08-03T02:17:46.524Z,4.20
2018-08-03T02:20:14.696Z,4.00
2018-08-03T02:22:42.874Z,3.83
2018-08-03T02:25:11.079Z,3.80
2018-08-03T02:27:39.106Z,4.97
2018-08-03T02:30:07.270Z,4.23
2018-08-03T02:32:35.467Z,4.13
2018-08-03T02:35:03.713Z,4.60
2018-08-03T02:37:32.149Z,4.20
2018-08-03T02:40:00.159Z,5.00
2018-08-03T02:42:28.328Z,4.80
2018-08-03T02:44:56.510Z,4.53
2018-08-03T02:47:24.723Z,4.30
2018-08-03T02:49:52.897Z,5.13
2018-08-03T02:52:21.074Z,4.50
2018-08-03T02:54:49.037Z,4.30
2018-08-03T02:57:17.212Z,4.07
2018-08-03T02:59:45.403Z,4.80
2018-08-03T03:02:13.595Z,4.33
2018-08-03T03:04:41.779Z,4.80
2018-08-03T03:07:09.957Z,5.20
2018-08-03T03:09:38.135Z,4.13
2018-08-03T03:12:06.339Z,4.37
2018-08-03T03:14:34.524Z,5.00
2018-08-03T03:17:02.707Z,4.67
2018-08-03T03:19:30.922Z,4.80
2018-08-03T03:21:59.067Z,5.20
2018-08-03T03:24:27.235Z,5.17
2018-08-03T03:26:55.440Z,4.77
2018-08-03T03:29:23.599Z,5.37
2018-08-03T03:31:51.595Z,5.20
2018-08-03T03:34:19.752Z,4.50
2018-08-03T03:36:47.928Z,5.17
2018-08-03T03:39:16.130Z,5.40
2018-08-03T03:41:44.305Z,4.90
2018-08-03T03:44:12.490Z,5.17
2018-08-03T03:46:40.672Z,6.63
2018-08-03T03:49:08.884Z,6.20
2018-08-03T03:51:37.083Z,5.60
2018-08-03T03:54:05.261Z,6.30
2018-08-03T03:56:33.446Z,5.03
2018-08-03T03:59:01.638Z,5.90
2018-08-03T04:01:29.824Z,5.03
2018-08-03T04:03:58.054Z,5.70
2018-08-03T04:06:26.192Z,5.10
2018-08-03T04:08:54.379Z,5.50
2018-08-03T04:11:22.555Z,4.97
2018-08-03T04:13:50.915Z,5.47
2018-08-03T04:16:19.104Z,4.90
2018-08-03T04:18:47.288Z,5.40
2018-08-03T04:21:15.495Z,5.73
2018-08-03T04:23:43.672Z,6.17
2018-08-03T04:26:11.859Z,5.37
2018-08-03T04:28:40.033Z,5.07
2018-08-03T04:31:08.209Z,5.70
2018-08-03T04:33:36.387Z,5.03
2018-08-03T04:36:04.596Z,5.37
2018-08-03T04:38:32.795Z,4.60
2018-08-03T04:41:00.988Z,4.60
2018-08-03T04:43:29.154Z,5.53
2018-08-03T04:45:57.344Z,5.40
2018-08-03T04:48:25.517Z,5.67
2018-08-03T04:50:53.704Z,5.60
2018-08-03T04:53:21.866Z,5.63
2018-08-03T04:55:50.089Z,5.67
2018-08-03T04:58:18.276Z,6.23
2018-08-03T05:00:46.468Z,7.13
2018-08-03T05:03:14.655Z,5.80
2018-08-03T05:05:42.837Z,6.70
2018-08-03T05:08:10.996Z,6.50
2018-08-03T05:10:39.167Z,6.33
2018-08-03T05:13:07.380Z,6.63
2018-08-03T05:15:35.683Z,7.07
2018-08-03T05:18:03.795Z,6.83
2018-08-03T05:20:32.984Z,6.60
2018-08-03T05:23:01.424Z,6.70
2018-08-03T05:25:29.582Z,6.37
2018-08-03T05:27:57.522Z,7.33
2018-08-03T05:30:25.718Z,6.70
2018-08-03T05:32:53.890Z,6.10
2018-08-03T05:35:22.085Z,5.63
2018-08-03T05:37:50.465Z,6.37
2018-08-03T05:40:18.631Z,6.03
2018-08-03T05:42:46.836Z,6.40
2018-08-03T05:45:15.003Z,6.00
2018-08-03T05:47:43.191Z,5.57
2018-08-03T05:50:11.423Z,6.17
2018-08-03T05:52:39.581Z,6.63
2018-08-03T05:55:07.799Z,6.50
2018-08-03T05:57:35.992Z,7.13
2018-08-03T06:00:05.323Z,6.00
2018-08-03T06:02:34.079Z,6.43
2018-08-03T06:05:02.304Z,7.17
2018-08-03T06:07:30.500Z,5.80
2018-08-03T06:09:58.672Z,6.67
2018-08-03T06:12:26.856Z,7.90
2018-08-03T06:14:55.131Z,6.83
2018-08-03T06:17:23.290Z,6.70
2018-08-03T06:19:51.462Z,7.43
2018-08-03T06:22:19.655Z,7.87
2018-08-03T06:24:47.859Z,6.90
2018-08-03T06:27:16.023Z,6.53
2018-08-03T06:29:44.299Z,6.93
2018-08-03T06:32:12.435Z,6.20
2018-08-03T06:34:40.599Z,5.63
2018-08-03T06:37:08.959Z,6.23
2018-08-03T06:39:36.926Z,6.77
2018-08-03T06:42:04.919Z,5.60
2018-08-03T06:44:33.636Z,4.40
2018-08-03T06:47:01.824Z,5.00
2018-08-03T06:49:30.025Z,4.80
2018-08-03T06:51:58.260Z,5.30
2018-08-03T06:54:26.460Z,4.30
2018-08-03T06:56:54.652Z,5.37
2018-08-03T06:59:22.885Z,4.67
2018-08-03T07:01:51.106Z,4.73
2018-08-03T07:04:19.073Z,5.20
2018-08-03T07:06:47.015Z,5.20
2018-08-03T07:09:15.249Z,4.10
2018-08-03T07:11:43.445Z,4.40
2018-08-03T07:14:11.623Z,3.57
2018-08-03T07:16:39.909Z,4.07
2018-08-03T07:19:08.128Z,4.57
2018-08-03T07:21:36.331Z,4.27
2018-08-03T07:24:04.531Z,4.07
2018-08-03T07:26:32.719Z,3.97
2018-08-03T07:29:00.895Z,5.00
2018-08-03T07:31:29.142Z,4.23
2018-08-03T07:33:57.300Z,3.80
2018-08-03T07:36:25.491Z,4.30
2018-08-03T07:38:53.680Z,4.73
2018-08-03T07:41:21.855Z,3.60
2018-08-03T07:43:50.047Z,3.50
2018-08-03T07:46:18.235Z,4.60
2018-08-03T07:48:46.440Z,5.50
2018-08-03T07:51:14.611Z,3.90
2018-08-03T07:53:42.807Z,3.63
2018-08-03T07:56:10.988Z,3.90
2018-08-03T07:58:39.176Z,3.10
2018-08-03T08:01:07.390Z,4.20
2018-08-03T08:03:35.559Z,3.30
2018-08-03T08:06:03.744Z,3.47
2018-08-03T08:08:31.930Z,3.83
2018-08-03T08:11:00.116Z,3.70
2018-08-03T08:13:28.326Z,4.50
2018-08-03T08:15:56.501Z,4.17
2018-08-03T08:18:24.684Z,3.30
2018-08-03T08:20:52.664Z,2.60
2018-08-03T08:23:20.612Z,3.20
2018-08-03T08:25:48.876Z,3.30
2018-08-03T08:28:17.066Z,3.07
2018-08-03T08:30:45.369Z,3.27
2018-08-03T08:33:13.568Z,3.10
2018-08-03T08:35:41.736Z,2.60
2018-08-03T08:38:09.924Z,2.73
2018-08-03T08:40:38.128Z,3.00
2018-08-03T08:43:06.492Z,2.73
2018-08-03T08:45:34.685Z,3.10
2018-08-03T08:48:02.850Z,2.80
2018-08-03T08:50:31.033Z,3.03
2018-08-03T08:52:59.504Z,2.90
2018-08-03T08:55:27.685Z,2.30
2018-08-03T08:57:55.898Z,2.93
2018-08-03T09:00:24.160Z,2.67
2018-08-03T09:02:52.319Z,2.50
2018-08-03T09:05:20.376Z,2.30
2018-08-03T09:07:48.593Z,2.47
2018-08-03T09:10:16.724Z,2.60
2018-08-03T09:12:44.920Z,2.13
2018-08-03T09:15:12.862Z,2.10
2018-08-03T09:17:41.032Z,2.20
2018-08-03T09:20:09.209Z,2.17
2018-08-03T09:22:37.398Z,2.73
2018-08-03T09:25:05.323Z,2.47
2018-08-03T09:27:33.505Z,1.90
2018-08-03T09:30:01.700Z,1.97
2018-08-03T09:32:29.864Z,2.67
2018-08-03T09:34:58.053Z,2.35
2018-08-03T09:37:26.251Z,2.10
2018-08-03T09:39:55.232Z,2.57
2018-08-03T09:42:23.181Z,2.37
2018-08-03T09:44:51.973Z,2.50
2018-08-03T09:47:20.147Z,1.50
2018-08-03T09:49:48.083Z,2.07
2018-08-03T09:52:16.267Z,2.00
2018-08-03T09:54:44.435Z,2.40
2018-08-03T09:57:12.868Z,2.10
2018-08-03T09:59:41.091Z,2.00
2018-08-03T10:02:09.324Z,2.17
2018-08-03T10:04:37.512Z,3.10
2018-08-03T10:07:05.717Z,2.80
2018-08-03T10:09:34.656Z,2.90
2018-08-03T10:12:02.832Z,2.80
2018-08-03T10:14:31.012Z,2.43
2018-08-03T10:16:59.177Z,2.40
2018-08-03T10:19:27.385Z,1.80
2018-08-03T10:21:55.610Z,2.13
2018-08-03T10:24:23.557Z,2.00
2018-08-03T10:26:51.741Z,2.30
2018-08-03T10:29:20.159Z,2.37
2018-08-03T10:31:48.335Z,2.40
2018-08-03T10:34:16.507Z,2.47
2018-08-03T10:36:44.708Z,2.60
2018-08-03T10:39:12.911Z,2.50
2018-08-03T10:41:41.324Z,2.60
2018-08-03T10:44:10.401Z,2.80
2018-08-03T10:46:38.613Z,1.80
2018-08-03T10:49:06.866Z,1.90
2018-08-03T10:51:35.057Z,2.30
2018-08-03T10:54:03.284Z,2.03
2018-08-03T10:56:31.482Z,2.30
2018-08-03T10:58:59.663Z,2.13
2018-08-03T11:01:27.883Z,1.80
2018-08-03T11:03:56.063Z,2.40
2018-08-03T11:06:24.252Z,1.97
2018-08-03T11:08:52.428Z,2.00
2018-08-03T11:11:20.379Z,2.30
2018-08-03T11:13:48.652Z,1.80
2018-08-03T11:16:16.741Z,2.87
2018-08-03T11:18:44.913Z,2.30
2018-08-03T11:21:13.139Z,1.90
2018-08-03T11:23:41.311Z,1.90
2018-08-03T11:26:09.519Z,1.90
2018-08-03T11:28:38.217Z,2.20
2018-08-03T11:31:06.415Z,2.30
2018-08-03T11:33:34.641Z,2.20
2018-08-03T11:36:02.828Z,1.90
2018-08-03T11:38:31.028Z,1.93
2018-08-03T11:40:58.967Z,2.20
2018-08-03T11:43:27.370Z,2.90
2018-08-03T11:45:55.338Z,1.67
2018-08-03T11:48:23.299Z,2.00
2018-08-03T11:50:51.472Z,2.10
2018-08-03T11:53:19.658Z,1.20
2018-08-03T11:55:47.628Z,1.83
2018-08-03T11:58:15.567Z,1.80
2018-08-03T12:00:43.741Z,1.90
2018-08-03T12:03:11.946Z,2.43
2018-08-03T12:05:39.888Z,2.30
2018-08-03T12:08:08.059Z,2.23
2018-08-03T12:10:36.239Z,2.20
2018-08-03T12:13:04.472Z,1.70
2018-08-03T12:15:32.647Z,1.40
2018-08-03T12:18:00.952Z,1.90
2018-08-03T12:20:28.975Z,2.10
2018-08-03T12:22:57.187Z,1.97
2018-08-03T12:25:25.372Z,1.77
2018-08-03T12:27:53.543Z,1.67
2018-08-03T12:30:21.727Z,1.50
2018-08-03T12:32:49.891Z,2.40
2018-08-03T12:35:18.087Z,2.00
2018-08-03T12:37:46.264Z,1.73
2018-08-03T12:40:14.429Z,2.17
2018-08-03T12:42:42.619Z,1.80
2018-08-03T12:45:10.814Z,2.30
2018-08-03T12:47:38.996Z,1.73
2018-08-03T12:50:07.179Z,1.50
2018-08-03T12:52:35.520Z,1.60
2018-08-03T12:55:03.756Z,2.13
2018-08-03T12:57:31.954Z,1.80
2018-08-03T12:59:59.886Z,1.80
2018-08-03T13:02:28.130Z,2.27
2018-08-03T13:04:56.312Z,2.17
2018-08-03T13:07:24.651Z,1.90
2018-08-03T13:09:52.685Z,1.80
2018-08-03T13:12:20.881Z,1.70
2018-08-03T13:14:49.113Z,1.50
2018-08-03T13:17:17.250Z,1.70
2018-08-03T13:19:45.450Z,1.50
2018-08-03T13:22:21.986Z,1.67
2018-08-03T13:24:50.432Z,1.67
2018-08-03T13:27:19.089Z,1.60
2018-08-03T13:29:47.247Z,2.10
2018-08-03T13:32:15.442Z,1.70
2018-08-03T13:34:43.632Z,1.60
2018-08-03T13:37:11.831Z,1.73
2018-08-03T13:39:40.012Z,1.67
2018-08-03T13:42:08.247Z,1.83
2018-08-03T13:44:36.472Z,2.20
2018-08-03T13:47:04.625Z,2.80
2018-08-03T13:49:32.823Z,3.23
2018-08-03T13:52:00.755Z,3.03
2018-08-03T13:54:28.951Z,4.13
2018-08-03T13:56:56.979Z,3.63
2018-08-03T13:59:25.211Z,3.40
2018-08-03T14:02:04.779Z,2.83
2018-08-03T14:04:33.003Z,3.03
2018-08-03T14:07:01.185Z,3.73
2018-08-03T14:09:29.363Z,2.20
2018-08-03T14:11:57.553Z,2.77
2018-08-03T14:14:25.753Z,2.90
2018-08-03T14:16:53.933Z,2.37
2018-08-03T14:19:22.123Z,2.40
2018-08-03T14:21:50.323Z,2.57
2018-08-03T14:24:18.496Z,2.87
2018-08-03T14:26:46.691Z,2.93
2018-08-03T14:29:14.882Z,3.00
2018-08-03T14:31:43.143Z,2.40
2018-08-03T14:34:11.314Z,2.67
2018-08-03T14:36:39.266Z,2.77
2018-08-03T14:39:07.626Z,3.00
2018-08-03T14:41:35.865Z,2.00
2018-08-03T14:44:04.327Z,1.87
2018-08-03T14:46:32.523Z,2.40
2018-08-03T14:49:00.712Z,2.97
2018-08-03T14:51:28.883Z,2.20
2018-08-03T14:53:57.057Z,2.43
2018-08-03T14:56:25.711Z,1.87
2018-08-03T14:58:53.990Z,2.47
2018-08-03T15:01:22.169Z,2.73
2018-08-03T15:03:51.365Z,2.30
2018-08-03T15:06:19.541Z,1.80
2018-08-03T15:08:47.726Z,2.23
2018-08-03T15:11:15.956Z,2.07
2018-08-03T15:13:43.891Z,1.60
2018-08-03T15:16:12.071Z,1.83
2018-08-03T15:18:40.244Z,1.77
2018-08-03T15:21:08.417Z,2.10
2018-08-03T15:23:36.653Z,1.90
2018-08-03T15:26:04.827Z,1.90
2018-08-03T15:28:33.053Z,1.57
2018-08-03T15:31:01.262Z,1.97
2018-08-03T15:33:29.437Z,2.13
2018-08-03T15:35:57.635Z,1.90
2018-08-03T15:38:25.907Z,2.07
2018-08-03T15:40:54.991Z,2.00
2018-08-03T15:43:23.111Z,2.23
2018-08-03T15:45:51.267Z,1.80
2018-08-03T15:48:19.450Z,2.13
2018-08-03T15:50:47.668Z,2.57
2018-08-03T15:53:15.853Z,1.67
2018-08-03T15:55:44.041Z,1.70
2018-08-03T15:58:12.227Z,1.47
2018-08-03T16:00:40.415Z,2.00
2018-08-03T16:03:08.609Z,1.70
2018-08-03T16:05:36.550Z,1.97
2018-08-03T16:08:04.732Z,1.70
2018-08-03T16:10:32.948Z,1.87
2018-08-03T16:13:01.343Z,1.83
2018-08-03T16:15:29.536Z,1.70
2018-08-03T16:17:57.707Z,1.70
2018-08-03T16:20:25.891Z,1.27
2018-08-03T16:22:54.096Z,1.40
2018-08-03T16:25:22.042Z,1.73
2018-08-03T16:27:50.220Z,1.50
2018-08-03T16:30:18.387Z,1.70
2018-08-03T16:32:46.586Z,2.40
2018-08-03T16:35:15.088Z,1.60
2018-08-03T16:37:43.308Z,1.77
2018-08-03T16:40:11.513Z,2.00
2018-08-03T16:42:39.695Z,1.57
2018-08-03T16:45:08.311Z,1.53
2018-08-03T16:47:37.260Z,1.73
2018-08-03T16:50:05.704Z,1.83
2018-08-03T16:52:33.898Z,1.93
2018-08-03T16:55:02.141Z,1.93
2018-08-03T16:57:30.308Z,2.13
2018-08-03T16:59:58.508Z,1.50
2018-08-03T17:02:26.671Z,1.73
2018-08-03T17:04:54.852Z,1.70
2018-08-03T17:07:23.024Z,1.63
2018-08-03T17:09:51.455Z,1.87
2018-08-03T17:12:19.639Z,2.17
2018-08-03T17:14:47.800Z,1.77
2018-08-03T17:17:16.008Z,1.73
2018-08-03T17:19:44.278Z,2.10
2018-08-03T17:22:12.471Z,2.27
2018-08-03T17:24:40.636Z,1.43
2018-08-03T17:27:09.050Z,2.00
2018-08-03T17:29:37.260Z,1.70
2018-08-03T17:32:05.555Z,1.37
2018-08-03T17:34:33.454Z,1.50
2018-08-03T17:37:01.707Z,1.77
2018-08-03T17:39:29.611Z,1.30
2018-08-03T17:41:57.810Z,1.90
2018-08-03T17:44:25.735Z,1.73
2018-08-03T17:46:53.956Z,2.50
2018-08-03T17:49:22.278Z,1.83
2018-08-03T17:51:50.468Z,1.60
2018-08-03T17:54:18.623Z,1.77
2018-08-03T17:56:46.843Z,1.50
2018-08-03T17:59:15.056Z,2.13
2018-08-03T18:01:43.248Z,1.93
2018-08-03T18:04:11.471Z,2.03
2018-08-03T18:06:39.669Z,1.70
2018-08-03T18:09:07.849Z,1.93
2018-08-03T18:11:36.724Z,1.43
2018-08-03T18:14:05.087Z,1.60
2018-08-03T18:16:33.325Z,1.60
2018-08-03T18:19:01.593Z,1.90
2018-08-03T18:21:29.734Z,1.53
2018-08-03T18:23:57.919Z,1.97
2018-08-03T18:26:26.080Z,1.87
2018-08-03T18:28:54.393Z,1.97
2018-08-03T18:31:22.454Z,1.83
2018-08-03T18:33:51.083Z,2.53
2018-08-03T18:36:19.288Z,1.77
2018-08-03T18:38:47.479Z,2.17
2018-08-03T18:41:15.656Z,2.33
2018-08-03T18:43:43.843Z,2.13
2018-08-03T18:46:12.108Z,2.63
2018-08-03T18:48:39.993Z,2.00
2018-08-03T18:51:08.173Z,1.87
2018-08-03T18:53:36.332Z,2.43
2018-08-03T18:56:04.539Z,2.30
2018-08-03T18:58:32.713Z,1.70
2018-08-03T19:01:00.922Z,1.80
2018-08-03T19:03:29.110Z,2.07
2018-08-03T19:05:57.319Z,2.27
2018-08-03T19:08:25.309Z,1.90
2018-08-03T19:10:53.483Z,2.07
2018-08-03T19:13:21.677Z,2.10
2018-08-03T19:15:50.579Z,2.60
2018-08-03T19:18:18.899Z,2.23
2018-08-03T19:20:47.113Z,2.00
2018-08-03T19:23:15.371Z,2.50
2018-08-03T19:25:43.612Z,1.90
2018-08-03T19:28:11.804Z,2.00
2018-08-03T19:30:40.011Z,2.10
2018-08-03T19:33:08.274Z,2.37
2018-08-03T19:35:36.451Z,2.10
2018-08-03T19:38:04.924Z,2.00
2018-08-03T19:40:33.087Z,1.90
2018-08-03T19:43:01.038Z,2.10
2018-08-03T19:45:29.219Z,1.70
2018-08-03T19:47:57.424Z,2.67
2018-08-03T19:50:25.604Z,2.57
2018-08-03T19:52:53.791Z,2.03
2018-08-03T19:55:21.995Z,2.10
2018-08-03T19:57:50.171Z,2.27
2018-08-03T20:00:18.402Z,1.97
2018-08-03T20:02:46.577Z,2.77
2018-08-03T20:05:14.944Z,2.13
2018-08-03T20:07:43.071Z,2.47
2018-08-03T20:10:11.554Z,3.10
2018-08-03T20:12:39.808Z,2.50
2018-08-03T20:15:08.147Z,1.97
2018-08-03T20:17:36.308Z,1.90
2018-08-03T20:20:04.560Z,2.00
2018-08-03T20:22:32.733Z,2.13
2018-08-03T20:25:00.965Z,2.17
2018-08-03T20:27:29.235Z,2.47
2018-08-03T20:29:57.427Z,2.60
2018-08-03T20:32:25.610Z,3.03
2018-08-03T20:34:53.792Z,2.23
2018-08-03T20:37:21.976Z,2.43
2018-08-03T20:39:50.343Z,2.63
2018-08-03T20:42:18.549Z,1.70
2018-08-03T20:44:46.560Z,2.70
2018-08-03T20:47:14.703Z,2.50
2018-08-03T20:49:43.892Z,2.33
2018-08-03T20:52:12.107Z,1.73
2018-08-03T20:54:40.270Z,2.10
2018-08-03T20:57:08.447Z,2.10
2018-08-03T20:59:37.284Z,2.20
2018-08-03T21:02:05.467Z,2.50
2018-08-03T21:04:33.437Z,2.00
2018-08-03T21:07:01.597Z,2.20
2018-08-03T21:09:29.781Z,2.33
2018-08-03T21:11:57.802Z,2.30
2018-08-03T21:14:25.987Z,2.60
2018-08-03T21:16:54.175Z,2.63
2018-08-03T21:19:22.413Z,2.00
2018-08-03T21:21:50.591Z,2.37
2018-08-03T21:24:18.797Z,2.00
2018-08-03T21:26:47.040Z,2.00
2018-08-03T21:29:15.230Z,3.10
2018-08-03T21:31:50.170Z,1.93
2018-08-03T21:34:18.222Z,2.17
2018-08-03T21:36:46.411Z,2.20
2018-08-03T21:39:14.599Z,2.00
2018-08-03T21:41:42.786Z,2.67
2018-08-03T21:44:10.955Z,2.30
2018-08-03T21:46:39.134Z,2.50
2018-08-03T21:49:07.142Z,2.60
2018-08-03T21:51:35.319Z,2.80
2018-08-03T21:54:03.877Z,2.65
2018-08-03T21:56:31.841Z,2.53
2018-08-03T21:59:00.019Z,2.80
2018-08-03T22:01:28.210Z,2.13
2018-08-03T22:03:56.387Z,2.20
2018-08-03T22:06:24.578Z,2.43
2018-08-03T22:08:52.751Z,2.80
2018-08-03T22:11:20.914Z,2.37
2018-08-03T22:13:49.090Z,2.30
2018-08-03T22:16:17.274Z,2.00
2018-08-03T22:18:45.483Z,2.37
2018-08-03T22:21:13.663Z,2.40
2018-08-03T22:23:41.612Z,2.07
2018-08-03T22:26:09.843Z,2.10
2018-08-03T22:28:38.013Z,2.00
2018-08-03T22:31:06.215Z,1.70
2018-08-03T22:33:34.379Z,1.60
2018-08-03T22:36:02.574Z,2.37
2018-08-03T22:38:30.769Z,2.10
2018-08-03T22:40:58.943Z,2.00
2018-08-03T22:43:27.110Z,1.90
2018-08-03T22:45:55.313Z,2.80
2018-08-03T22:48:23.470Z,2.10
2018-08-03T22:50:51.427Z,2.37
2018-08-03T22:53:19.588Z,1.77
2018-08-03T22:55:47.786Z,1.87
2018-08-03T22:58:15.946Z,1.90
2018-08-03T23:00:44.131Z,2.70
2018-08-03T23:03:12.091Z,1.50
2018-08-03T23:05:40.275Z,2.47
2018-08-03T23:08:08.255Z,2.23
2018-08-03T23:10:36.370Z,1.80
2018-08-03T23:13:04.546Z,2.20
2018-08-03T23:15:32.739Z,1.53
2018-08-03T23:18:00.914Z,2.00
2018-08-03T23:20:29.084Z,2.20
2018-08-03T23:22:57.299Z,2.13
2018-08-03T23:25:25.281Z,2.57
2018-08-03T23:27:53.476Z,2.50
2018-08-03T23:30:21.636Z,2.40
2018-08-03T23:32:49.807Z,2.40
2018-08-03T23:35:18.097Z,1.80
2018-08-03T23:37:46.258Z,2.23
2018-08-03T23:40:14.431Z,2.00
2018-08-03T23:42:42.627Z,2.23
2018-08-03T23:45:10.880Z,1.60
2018-08-03T23:47:39.083Z,1.90
2018-08-03T23:50:13.980Z,1.80
2018-08-03T23:52:42.184Z,1.97
2018-08-03T23:55:10.435Z,2.60
2018-08-03T23:57:38.602Z,2.17
